PWSweather.com
Personal Weather Stations
Station Observations
AC5JC
Greenleaf Peninsula, Waco, Waco, TX 76710

Greenleaf Peninsula, WacoWaco, TX 76710

Lat: 31.565, Lon: -97.198

Elevation: 570

Station Type: Ambient WS-1400IP

http://ac5jc.dyndns.org

High Low Average
Temperature 69.4°F20.8°C 52.9°F11.6°C 60.0°F15.6°C
Dew Point 52.7°F11.5°C 44.1°F6.7°C 47.5°F8.6°C
Winds 10.2 mph 16.4 kmh Calm Calm 3.0 mph NW4.8 kmh NW
Wind Gusts 22.4 mph36.0 kmh -- 7.0 mph11.3 kmh
Humidity 88% 40% 66%
Pressure 29.52 in999.7 mb 29.41 in995.9 mb -
Precipitation 0.00 in0.0 mm - -
Hour Temp Dew Point Humidity Winds Wind Gusts Pressure Precip Precip Rate Daily Precip Total
12:00 AM 59.1°F15.1°C 57.4°F14.1°C 94% 4.5 mph WNW7.2 kmh WNW 7.4 mph11.9 kmh 29.42 in996.3 mb 0.00 in0.0 mm 0.00 in0.0 mm 0.00 in0.0 mm
12:05 AM 58.8°F14.9°C 57.1°F13.9°C 94% 6.1 mph NNW9.8 kmh NNW 17.4 mph28.0 kmh 29.43 in996.6 mb 0.00 in0.0 mm 0.00 in0.0 mm 0.00 in0.0 mm
12:10 AM 58.6°F14.8°C 56.9°F13.8°C 94% 6.8 mph NNW10.9 kmh NNW 15.0 mph24.1 kmh 29.43 in996.6 mb 0.00 in0.0 mm 0.00 in0.0 mm 0.00 in0.0 mm
12:15 AM 58.5°F14.7°C 56.6°F13.7°C 93% 5.8 mph NW9.3 kmh NW 15.0 mph24.1 kmh 29.43 in996.6 mb 0.00 in0.0 mm 0.00 in0.0 mm 0.00 in0.0 mm
12:20 AM 58.3°F14.6°C 56.1°F13.4°C 92% 5.0 mph NW8.0 kmh NW 12.3 mph19.8 kmh 29.44 in997.0 mb 0.00 in0.0 mm 0.00 in0.0 mm 0.00 in0.0 mm
12:25 AM 58.2°F14.6°C 55.5°F13.1°C 91% 6.1 mph NW9.8 kmh NW 12.3 mph19.8 kmh 29.44 in997.0 mb 0.00 in0.0 mm 0.00 in0.0 mm 0.00 in0.0 mm
12:30 AM 58.1°F14.5°C 54.5°F12.5°C 88% 8.8 mph NNW14.2 kmh NNW 15.0 mph24.1 kmh 29.44 in997.0 mb 0.00 in0.0 mm 0.00 in0.0 mm 0.00 in0.0 mm
12:35 AM 58.1°F14.5°C 53.9°F12.2°C 86% 6.0 mph NNW9.7 kmh NNW 12.3 mph19.8 kmh 29.44 in997.0 mb 0.00 in0.0 mm 0.00 in0.0 mm 0.00 in0.0 mm
12:40 AM 58.1°F14.5°C 53.5°F11.9°C 84% 6.8 mph NNW10.9 kmh NNW 15.0 mph24.1 kmh 29.44 in997.0 mb 0.00 in0.0 mm 0.00 in0.0 mm 0.00 in0.0 mm
12:45 AM 57.9°F14.4°C 53.2°F11.8°C 84% 3.5 mph NW5.6 kmh NW 7.4 mph11.9 kmh 29.44 in997.0 mb 0.00 in0.0 mm 0.00 in0.0 mm 0.00 in0.0 mm
12:50 AM 57.9°F14.4°C 53.4°F11.9°C 85% 4.2 mph WNW6.8 kmh WNW 7.4 mph11.9 kmh 29.44 in997.0 mb 0.00 in0.0 mm 0.00 in0.0 mm 0.00 in0.0 mm
12:55 AM 57.7°F14.3°C 53.1°F11.7°C 85% 7.9 mph NNW12.7 kmh NNW 15.0 mph24.1 kmh 29.44 in997.0 mb 0.00 in0.0 mm 0.00 in0.0 mm 0.00 in0.0 mm
01:00 AM 57.5°F14.2°C 52.7°F11.5°C 84% 6.5 mph NW10.5 kmh NW 12.3 mph19.8 kmh 29.44 in997.0 mb 0.00 in0.0 mm 0.00 in0.0 mm 0.00 in0.0 mm
01:05 AM 57.4°F14.1°C 52.6°F11.4°C 84% 3.9 mph NW6.3 kmh NW 7.4 mph11.9 kmh 29.44 in997.0 mb 0.00 in0.0 mm 0.00 in0.0 mm 0.00 in0.0 mm
01:10 AM 57.2°F14.0°C 52.4°F11.3°C 84% 2.5 mph WNW4.0 kmh WNW 9.8 mph15.8 kmh 29.44 in997.0 mb 0.00 in0.0 mm 0.00 in0.0 mm 0.00 in0.0 mm
01:15 AM 57.0°F13.9°C 52.5°F11.4°C 85% 3.7 mph NW6.0 kmh NW 7.4 mph11.9 kmh 29.44 in997.0 mb 0.00 in0.0 mm 0.00 in0.0 mm 0.00 in0.0 mm
01:20 AM 56.8°F13.8°C 52.0°F11.1°C 84% 4.8 mph NNW7.7 kmh NNW 12.3 mph19.8 kmh 29.44 in997.0 mb 0.00 in0.0 mm 0.00 in0.0 mm 0.00 in0.0 mm
01:25 AM 56.8°F13.8°C 52.0°F11.1°C 84% 3.5 mph NW5.6 kmh NW 9.8 mph15.8 kmh 29.44 in997.0 mb 0.00 in0.0 mm 0.00 in0.0 mm 0.00 in0.0 mm
01:30 AM 56.8°F13.8°C 52.3°F11.3°C 85% 3.4 mph NW5.5 kmh NW 9.8 mph15.8 kmh 29.44 in997.0 mb 0.00 in0.0 mm 0.00 in0.0 mm 0.00 in0.0 mm
01:35 AM 56.7°F13.7°C 52.5°F11.4°C 86% 3.2 mph NNW5.1 kmh NNW 7.4 mph11.9 kmh 29.44 in997.0 mb 0.00 in0.0 mm 0.00 in0.0 mm 0.00 in0.0 mm
01:40 AM 56.7°F13.7°C 52.6°F11.4°C 86% 1.6 mph NNW2.6 kmh NNW 4.9 mph7.9 kmh 29.44 in997.0 mb 0.00 in0.0 mm 0.00 in0.0 mm 0.00 in0.0 mm
01:45 AM 56.5°F13.6°C 52.7°F11.5°C 87% 0.7 mph N1.1 kmh N 4.9 mph7.9 kmh 29.43 in996.6 mb 0.00 in0.0 mm 0.00 in0.0 mm 0.00 in0.0 mm
01:50 AM 56.3°F13.5°C 52.5°F11.4°C 87% 0.9 mph NW1.4 kmh NW 2.5 mph4.0 kmh 29.44 in997.0 mb 0.00 in0.0 mm 0.00 in0.0 mm 0.00 in0.0 mm
01:55 AM 56.1°F13.4°C 52.3°F11.3°C 87% 2.1 mph NW3.4 kmh NW 4.9 mph7.9 kmh 29.44 in997.0 mb 0.00 in0.0 mm 0.00 in0.0 mm 0.00 in0.0 mm
02:00 AM 56.0°F13.3°C 52.5°F11.4°C 88% 1.9 mph NW3.1 kmh NW 7.4 mph11.9 kmh 29.44 in997.0 mb 0.00 in0.0 mm 0.00 in0.0 mm 0.00 in0.0 mm
02:05 AM 55.9°F13.3°C 52.4°F11.3°C 88% 2.0 mph WNW3.2 kmh WNW 4.9 mph7.9 kmh 29.44 in997.0 mb 0.00 in0.0 mm 0.00 in0.0 mm 0.00 in0.0 mm
02:10 AM 55.8°F13.2°C 52.3°F11.3°C 88% 2.1 mph WNW3.4 kmh WNW 7.4 mph11.9 kmh 29.44 in997.0 mb 0.00 in0.0 mm 0.00 in0.0 mm 0.00 in0.0 mm
02:15 AM 55.8°F13.2°C 52.3°F11.3°C 88% 2.1 mph W3.4 kmh W 7.4 mph11.9 kmh 29.43 in996.6 mb 0.00 in0.0 mm 0.00 in0.0 mm 0.00 in0.0 mm
02:20 AM 55.6°F13.1°C 52.1°F11.2°C 88% 1.2 mph NW1.9 kmh NW 2.5 mph4.0 kmh 29.43 in996.6 mb 0.00 in0.0 mm 0.00 in0.0 mm 0.00 in0.0 mm
02:25 AM 55.6°F13.1°C 52.1°F11.2°C 88% 2.2 mph NNW3.5 kmh NNW 7.4 mph11.9 kmh 29.43 in996.6 mb 0.00 in0.0 mm 0.00 in0.0 mm 0.00 in0.0 mm
02:30 AM 55.6°F13.1°C 52.1°F11.2°C 88% 2.0 mph NW3.2 kmh NW 7.4 mph11.9 kmh 29.43 in996.6 mb 0.00 in0.0 mm 0.00 in0.0 mm 0.00 in0.0 mm
02:35 AM 55.5°F13.1°C 52.0°F11.1°C 88% 2.6 mph NW4.2 kmh NW 9.8 mph15.8 kmh 29.44 in997.0 mb 0.00 in0.0 mm 0.00 in0.0 mm 0.00 in0.0 mm
02:40 AM 55.3°F12.9°C 51.8°F11.0°C 88% 4.2 mph NW6.8 kmh NW 12.3 mph19.8 kmh 29.44 in997.0 mb 0.00 in0.0 mm 0.00 in0.0 mm 0.00 in0.0 mm
02:45 AM 55.2°F12.9°C 51.3°F10.7°C 87% 2.3 mph NW3.7 kmh NW 4.9 mph7.9 kmh 29.43 in996.6 mb 0.00 in0.0 mm 0.00 in0.0 mm 0.00 in0.0 mm
02:50 AM 55.0°F12.8°C 50.8°F10.4°C 86% 3.2 mph NW5.1 kmh NW 7.4 mph11.9 kmh 29.43 in996.6 mb 0.00 in0.0 mm 0.00 in0.0 mm 0.00 in0.0 mm
02:55 AM 54.9°F12.7°C 50.5°F10.3°C 85% 4.1 mph NW6.6 kmh NW 9.8 mph15.8 kmh 29.43 in996.6 mb 0.00 in0.0 mm 0.00 in0.0 mm 0.00 in0.0 mm
03:00 AM 54.7°F12.6°C 50.0°F10.0°C 84% 4.8 mph NW7.7 kmh NW 19.9 mph32.0 kmh 29.43 in996.6 mb 0.00 in0.0 mm 0.00 in0.0 mm 0.00 in0.0 mm
03:05 AM 54.5°F12.5°C 49.8°F9.9°C 84% 5.1 mph NW8.2 kmh NW 9.8 mph15.8 kmh 29.43 in996.6 mb 0.00 in0.0 mm 0.00 in0.0 mm 0.00 in0.0 mm
03:10 AM 54.5°F12.5°C 49.7°F9.8°C 84% 4.4 mph NW7.1 kmh NW 12.3 mph19.8 kmh 29.44 in997.0 mb 0.00 in0.0 mm 0.00 in0.0 mm 0.00 in0.0 mm
03:15 AM 54.3°F12.4°C 49.6°F9.8°C 84% 2.7 mph NW4.3 kmh NW 9.8 mph15.8 kmh 29.43 in996.6 mb 0.00 in0.0 mm 0.00 in0.0 mm 0.00 in0.0 mm
03:20 AM 54.1°F12.3°C 49.8°F9.9°C 85% 3.1 mph NW5.0 kmh NW 7.4 mph11.9 kmh 29.44 in997.0 mb 0.00 in0.0 mm 0.00 in0.0 mm 0.00 in0.0 mm
03:25 AM 54.0°F12.2°C 50.3°F10.2°C 87% 4.5 mph NW7.2 kmh NW 9.8 mph15.8 kmh 29.44 in997.0 mb 0.00 in0.0 mm 0.00 in0.0 mm 0.00 in0.0 mm
03:30 AM 53.8°F12.1°C 50.3°F10.2°C 88% 5.8 mph NW9.3 kmh NW 15.0 mph24.1 kmh 29.43 in996.6 mb 0.00 in0.0 mm 0.00 in0.0 mm 0.00 in0.0 mm
03:35 AM 53.7°F12.1°C 50.2°F10.1°C 88% 6.1 mph NW9.8 kmh NW 12.3 mph19.8 kmh 29.44 in997.0 mb 0.00 in0.0 mm 0.00 in0.0 mm 0.00 in0.0 mm
03:40 AM 53.5°F11.9°C 50.1°F10.1°C 88% 6.7 mph N10.8 kmh N 12.3 mph19.8 kmh 29.44 in997.0 mb 0.00 in0.0 mm 0.00 in0.0 mm 0.00 in0.0 mm
03:45 AM 53.4°F11.9°C 49.6°F9.8°C 87% 5.5 mph N8.9 kmh N 9.8 mph15.8 kmh 29.44 in997.0 mb 0.00 in0.0 mm 0.00 in0.0 mm 0.00 in0.0 mm
03:50 AM 53.4°F11.9°C 49.3°F9.6°C 86% 3.4 mph NNW5.5 kmh NNW 9.8 mph15.8 kmh 29.44 in997.0 mb 0.00 in0.0 mm 0.00 in0.0 mm 0.00 in0.0 mm
03:55 AM 53.2°F11.8°C 49.1°F9.5°C 86% 4.2 mph NNW6.8 kmh NNW 9.8 mph15.8 kmh 29.44 in997.0 mb 0.00 in0.0 mm 0.00 in0.0 mm 0.00 in0.0 mm
04:00 AM 53.2°F11.8°C 48.9°F9.4°C 85% 5.5 mph NW8.9 kmh NW 15.0 mph24.1 kmh 29.44 in997.0 mb 0.00 in0.0 mm 0.00 in0.0 mm 0.00 in0.0 mm
04:05 AM 53.4°F11.9°C 48.7°F9.3°C 84% 7.6 mph NNW12.2 kmh NNW 17.4 mph28.0 kmh 29.44 in997.0 mb 0.00 in0.0 mm 0.00 in0.0 mm 0.00 in0.0 mm
04:10 AM 53.4°F11.9°C 48.4°F9.1°C 83% 3.9 mph N6.3 kmh N 15.0 mph24.1 kmh 29.44 in997.0 mb 0.00 in0.0 mm 0.00 in0.0 mm 0.00 in0.0 mm
04:15 AM 53.4°F11.9°C 48.2°F9.0°C 82% 7.5 mph N12.1 kmh N 15.0 mph24.1 kmh 29.44 in997.0 mb 0.00 in0.0 mm 0.00 in0.0 mm 0.00 in0.0 mm
04:20 AM 53.5°F11.9°C 48.1°F8.9°C 82% 10.2 mph NW16.4 kmh NW 22.4 mph36.0 kmh 29.44 in997.0 mb 0.00 in0.0 mm 0.00 in0.0 mm 0.00 in0.0 mm
04:25 AM 53.6°F12.0°C 47.9°F8.8°C 81% 8.3 mph NNW13.4 kmh NNW 19.9 mph32.0 kmh 29.45 in997.3 mb 0.00 in0.0 mm 0.00 in0.0 mm 0.00 in0.0 mm
04:30 AM 53.6°F12.0°C 47.9°F8.8°C 81% 7.6 mph N12.2 kmh N 12.3 mph19.8 kmh 29.45 in997.3 mb 0.00 in0.0 mm 0.00 in0.0 mm 0.00 in0.0 mm
04:35 AM 53.5°F11.9°C 47.6°F8.7°C 80% 8.9 mph NW14.3 kmh NW 17.4 mph28.0 kmh 29.45 in997.3 mb 0.00 in0.0 mm 0.00 in0.0 mm 0.00 in0.0 mm
04:40 AM 53.4°F11.9°C 47.4°F8.6°C 80% 5.2 mph NNW8.4 kmh NNW 12.3 mph19.8 kmh 29.46 in997.6 mb 0.00 in0.0 mm 0.00 in0.0 mm 0.00 in0.0 mm
04:45 AM 53.2°F11.8°C 47.2°F8.4°C 80% 7.1 mph NNW11.4 kmh NNW 12.3 mph19.8 kmh 29.46 in997.6 mb 0.00 in0.0 mm 0.00 in0.0 mm 0.00 in0.0 mm
04:50 AM 53.2°F11.8°C 47.4°F8.6°C 81% 5.9 mph N9.5 kmh N 17.4 mph28.0 kmh 29.45 in997.3 mb 0.00 in0.0 mm 0.00 in0.0 mm 0.00 in0.0 mm
04:55 AM 53.1°F11.7°C 47.4°F8.6°C 81% 6.9 mph NW11.1 kmh NW 12.3 mph19.8 kmh 29.46 in997.6 mb 0.00 in0.0 mm 0.00 in0.0 mm 0.00 in0.0 mm
05:00 AM 53.1°F11.7°C 47.4°F8.6°C 81% 3.8 mph NNW6.1 kmh NNW 9.8 mph15.8 kmh 29.46 in997.6 mb 0.00 in0.0 mm 0.00 in0.0 mm 0.00 in0.0 mm
05:05 AM 53.0°F11.7°C 47.3°F8.5°C 81% 4.2 mph NW6.8 kmh NW 9.8 mph15.8 kmh 29.46 in997.6 mb 0.00 in0.0 mm 0.00 in0.0 mm 0.00 in0.0 mm
05:10 AM 52.9°F11.6°C 47.2°F8.4°C 81% 7.7 mph NW12.4 kmh NW 15.0 mph24.1 kmh 29.46 in997.6 mb 0.00 in0.0 mm 0.00 in0.0 mm 0.00 in0.0 mm
05:15 AM 52.9°F11.6°C 47.2°F8.4°C 81% 4.5 mph NW7.2 kmh NW 7.4 mph11.9 kmh 29.46 in997.6 mb 0.00 in0.0 mm 0.00 in0.0 mm 0.00 in0.0 mm
05:20 AM 52.9°F11.6°C 47.2°F8.4°C 81% 8.3 mph NNW13.4 kmh NNW 15.0 mph24.1 kmh 29.46 in997.6 mb 0.00 in0.0 mm 0.00 in0.0 mm 0.00 in0.0 mm
05:25 AM 52.9°F11.6°C 47.1°F8.4°C 80% 4.4 mph NW7.1 kmh NW 12.3 mph19.8 kmh 29.47 in998.0 mb 0.00 in0.0 mm 0.00 in0.0 mm 0.00 in0.0 mm
05:30 AM 52.9°F11.6°C 46.9°F8.3°C 80% 5.4 mph NNW8.7 kmh NNW 12.3 mph19.8 kmh 29.47 in998.0 mb 0.00 in0.0 mm 0.00 in0.0 mm 0.00 in0.0 mm
05:35 AM 52.9°F11.6°C 46.9°F8.3°C 80% 3.3 mph WNW5.3 kmh WNW 9.8 mph15.8 kmh 29.47 in998.0 mb 0.00 in0.0 mm 0.00 in0.0 mm 0.00 in0.0 mm
05:40 AM 52.9°F11.6°C 46.9°F8.3°C 80% 4.4 mph NW7.1 kmh NW 9.8 mph15.8 kmh 29.47 in998.0 mb 0.00 in0.0 mm 0.00 in0.0 mm 0.00 in0.0 mm
05:45 AM 52.9°F11.6°C 46.9°F8.3°C 80% 4.3 mph NNW6.9 kmh NNW 9.8 mph15.8 kmh 29.47 in998.0 mb 0.00 in0.0 mm 0.00 in0.0 mm 0.00 in0.0 mm
05:50 AM 52.9°F11.6°C 46.9°F8.3°C 80% 4.3 mph NW6.9 kmh NW 9.8 mph15.8 kmh 29.47 in998.0 mb 0.00 in0.0 mm 0.00 in0.0 mm 0.00 in0.0 mm
05:55 AM 52.9°F11.6°C 46.9°F8.3°C 80% 5.0 mph NW8.0 kmh NW 9.8 mph15.8 kmh 29.47 in998.0 mb 0.00 in0.0 mm 0.00 in0.0 mm 0.00 in0.0 mm
06:00 AM 52.9°F11.6°C 47.2°F8.4°C 81% 3.7 mph NW6.0 kmh NW 7.4 mph11.9 kmh 29.47 in998.0 mb 0.00 in0.0 mm 0.00 in0.0 mm 0.00 in0.0 mm
06:05 AM 52.9°F11.6°C 47.2°F8.4°C 81% 4.8 mph NW7.7 kmh NW 9.8 mph15.8 kmh 29.48 in998.3 mb 0.00 in0.0 mm 0.00 in0.0 mm 0.00 in0.0 mm
06:10 AM 52.9°F11.6°C 47.2°F8.4°C 81% 6.0 mph NNW9.7 kmh NNW 9.8 mph15.8 kmh 29.47 in998.0 mb 0.00 in0.0 mm 0.00 in0.0 mm 0.00 in0.0 mm
06:15 AM 52.9°F11.6°C 47.2°F8.4°C 81% 2.5 mph NW4.0 kmh NW 7.4 mph11.9 kmh 29.47 in998.0 mb 0.00 in0.0 mm 0.00 in0.0 mm 0.00 in0.0 mm
06:20 AM 52.9°F11.6°C 47.2°F8.4°C 81% 4.8 mph NW7.7 kmh NW 9.8 mph15.8 kmh 29.47 in998.0 mb 0.00 in0.0 mm 0.00 in0.0 mm 0.00 in0.0 mm
06:25 AM 52.9°F11.6°C 47.3°F8.5°C 81% 4.1 mph NW6.6 kmh NW 7.4 mph11.9 kmh 29.48 in998.3 mb 0.00 in0.0 mm 0.00 in0.0 mm 0.00 in0.0 mm
06:30 AM 53.1°F11.7°C 47.4°F8.6°C 81% 4.9 mph N7.9 kmh N 7.4 mph11.9 kmh 29.47 in998.0 mb 0.00 in0.0 mm 0.00 in0.0 mm 0.00 in0.0 mm
06:35 AM 53.0°F11.7°C 47.4°F8.6°C 81% 2.6 mph NW4.2 kmh NW 4.9 mph7.9 kmh 29.47 in998.0 mb 0.00 in0.0 mm 0.00 in0.0 mm 0.00 in0.0 mm
06:40 AM 52.9°F11.6°C 47.3°F8.5°C 81% 2.5 mph NW4.0 kmh NW 7.4 mph11.9 kmh 29.47 in998.0 mb 0.00 in0.0 mm 0.00 in0.0 mm 0.00 in0.0 mm
06:45 AM 52.9°F11.6°C 47.4°F8.6°C 82% 3.3 mph NW5.3 kmh NW 7.4 mph11.9 kmh 29.47 in998.0 mb 0.00 in0.0 mm 0.00 in0.0 mm 0.00 in0.0 mm
06:50 AM 52.9°F11.6°C 47.2°F8.4°C 81% 3.0 mph NW4.8 kmh NW 9.8 mph15.8 kmh 29.47 in998.0 mb 0.00 in0.0 mm 0.00 in0.0 mm 0.00 in0.0 mm
06:55 AM 52.9°F11.6°C 47.2°F8.4°C 81% 5.3 mph N8.5 kmh N 9.8 mph15.8 kmh 29.47 in998.0 mb 0.00 in0.0 mm 0.00 in0.0 mm 0.00 in0.0 mm
07:00 AM 52.9°F11.6°C 47.2°F8.4°C 81% 4.3 mph NW6.9 kmh NW 7.4 mph11.9 kmh 29.46 in997.6 mb 0.00 in0.0 mm 0.00 in0.0 mm 0.00 in0.0 mm
07:05 AM 52.9°F11.6°C 47.2°F8.4°C 81% 6.0 mph NW9.7 kmh NW 15.0 mph24.1 kmh 29.47 in998.0 mb 0.00 in0.0 mm 0.00 in0.0 mm 0.00 in0.0 mm
07:10 AM 52.9°F11.6°C 47.2°F8.4°C 81% 6.2 mph NNW10.0 kmh NNW 15.0 mph24.1 kmh 29.47 in998.0 mb 0.00 in0.0 mm 0.00 in0.0 mm 0.00 in0.0 mm
07:15 AM 52.9°F11.6°C 47.2°F8.4°C 81% 3.5 mph NNW5.6 kmh NNW 7.4 mph11.9 kmh 29.48 in998.3 mb 0.00 in0.0 mm 0.00 in0.0 mm 0.00 in0.0 mm
07:20 AM 52.9°F11.6°C 47.2°F8.4°C 81% 7.2 mph NNW11.6 kmh NNW 9.8 mph15.8 kmh 29.48 in998.3 mb 0.00 in0.0 mm 0.00 in0.0 mm 0.00 in0.0 mm
07:25 AM 52.9°F11.6°C 47.2°F8.4°C 81% 4.8 mph NW7.7 kmh NW 9.8 mph15.8 kmh 29.48 in998.3 mb 0.00 in0.0 mm 0.00 in0.0 mm 0.00 in0.0 mm
07:30 AM 52.9°F11.6°C 47.2°F8.4°C 81% 5.0 mph NW8.0 kmh NW 12.3 mph19.8 kmh 29.48 in998.3 mb 0.00 in0.0 mm 0.00 in0.0 mm 0.00 in0.0 mm
07:35 AM 52.9°F11.6°C 47.2°F8.4°C 81% 3.9 mph N6.3 kmh N 7.4 mph11.9 kmh 29.48 in998.3 mb 0.00 in0.0 mm 0.00 in0.0 mm 0.00 in0.0 mm
07:40 AM 52.9°F11.6°C 47.2°F8.4°C 81% 4.7 mph NW7.6 kmh NW 9.8 mph15.8 kmh 29.48 in998.3 mb 0.00 in0.0 mm 0.00 in0.0 mm 0.00 in0.0 mm
07:45 AM 52.9°F11.6°C 47.2°F8.4°C 81% 5.8 mph NW9.3 kmh NW 9.8 mph15.8 kmh 29.48 in998.3 mb 0.00 in0.0 mm 0.00 in0.0 mm 0.00 in0.0 mm
07:50 AM 52.9°F11.6°C 47.2°F8.4°C 81% 6.4 mph N10.3 kmh N 9.8 mph15.8 kmh 29.49 in998.6 mb 0.00 in0.0 mm 0.00 in0.0 mm 0.00 in0.0 mm
07:55 AM 53.0°F11.7°C 47.4°F8.6°C 81% 6.4 mph NNW10.3 kmh NNW 9.8 mph15.8 kmh 29.48 in998.3 mb 0.00 in0.0 mm 0.00 in0.0 mm 0.00 in0.0 mm
08:00 AM 53.1°F11.7°C 47.4°F8.6°C 81% 4.2 mph NW6.8 kmh NW 7.4 mph11.9 kmh 29.49 in998.6 mb 0.00 in0.0 mm 0.00 in0.0 mm 0.00 in0.0 mm
08:05 AM 53.2°F11.8°C 47.5°F8.6°C 81% 6.2 mph NW10.0 kmh NW 12.3 mph19.8 kmh 29.49 in998.6 mb 0.00 in0.0 mm 0.00 in0.0 mm 0.00 in0.0 mm
08:10 AM 53.2°F11.8°C 47.5°F8.6°C 81% 6.2 mph NNW10.0 kmh NNW 9.8 mph15.8 kmh 29.49 in998.6 mb 0.00 in0.0 mm 0.00 in0.0 mm 0.00 in0.0 mm
08:15 AM 53.2°F11.8°C 47.5°F8.6°C 81% 4.0 mph NNW6.4 kmh NNW 7.4 mph11.9 kmh 29.49 in998.6 mb 0.00 in0.0 mm 0.00 in0.0 mm 0.00 in0.0 mm
08:20 AM 53.2°F11.8°C 47.5°F8.6°C 81% 6.5 mph NNW10.5 kmh NNW 12.3 mph19.8 kmh 29.49 in998.6 mb 0.00 in0.0 mm 0.00 in0.0 mm 0.00 in0.0 mm
08:25 AM 53.3°F11.8°C 46.9°F8.3°C 79% 7.7 mph NW12.4 kmh NW 17.4 mph28.0 kmh 29.50 in999.0 mb 0.00 in0.0 mm 0.00 in0.0 mm 0.00 in0.0 mm
08:30 AM 53.4°F11.9°C 46.7°F8.2°C 78% 5.5 mph NW8.9 kmh NW 12.3 mph19.8 kmh 29.50 in999.0 mb 0.00 in0.0 mm 0.00 in0.0 mm 0.00 in0.0 mm
08:35 AM 53.4°F11.9°C 46.7°F8.2°C 78% 6.2 mph NW10.0 kmh NW 9.8 mph15.8 kmh 29.50 in999.0 mb 0.00 in0.0 mm 0.00 in0.0 mm 0.00 in0.0 mm
08:40 AM 53.6°F12.0°C 46.9°F8.3°C 78% 2.0 mph NW3.2 kmh NW 4.9 mph7.9 kmh 29.50 in999.0 mb 0.00 in0.0 mm 0.00 in0.0 mm 0.00 in0.0 mm
08:45 AM 53.6°F12.0°C 46.9°F8.3°C 78% 5.9 mph NW9.5 kmh NW 9.8 mph15.8 kmh 29.50 in999.0 mb 0.00 in0.0 mm 0.00 in0.0 mm 0.00 in0.0 mm
08:50 AM 53.8°F12.1°C 46.9°F8.3°C 78% 6.1 mph NW9.8 kmh NW 15.0 mph24.1 kmh 29.50 in999.0 mb 0.00 in0.0 mm 0.00 in0.0 mm 0.00 in0.0 mm
08:55 AM 53.8°F12.1°C 46.4°F8.0°C 76% 6.6 mph N10.6 kmh N 17.4 mph28.0 kmh 29.51 in999.3 mb 0.00 in0.0 mm 0.00 in0.0 mm 0.00 in0.0 mm
09:00 AM 53.9°F12.2°C 46.5°F8.1°C 76% 7.6 mph NW12.2 kmh NW 12.3 mph19.8 kmh 29.50 in999.0 mb 0.00 in0.0 mm 0.00 in0.0 mm 0.00 in0.0 mm
09:05 AM 54.0°F12.2°C 46.6°F8.1°C 76% 3.8 mph NW6.1 kmh NW 7.4 mph11.9 kmh 29.51 in999.3 mb 0.00 in0.0 mm 0.00 in0.0 mm 0.00 in0.0 mm
09:10 AM 54.0°F12.2°C 46.5°F8.1°C 76% 5.6 mph NW9.0 kmh NW 9.8 mph15.8 kmh 29.50 in999.0 mb 0.00 in0.0 mm 0.00 in0.0 mm 0.00 in0.0 mm
09:15 AM 54.0°F12.2°C 46.3°F7.9°C 75% 3.4 mph NW5.5 kmh NW 7.4 mph11.9 kmh 29.50 in999.0 mb 0.00 in0.0 mm 0.00 in0.0 mm 0.00 in0.0 mm
09:20 AM 54.2°F12.3°C 46.4°F8.0°C 75% 3.4 mph WNW5.5 kmh WNW 7.4 mph11.9 kmh 29.50 in999.0 mb 0.00 in0.0 mm 0.00 in0.0 mm 0.00 in0.0 mm
09:25 AM 54.6°F12.6°C 46.0°F7.8°C 72% 3.9 mph NW6.3 kmh NW 7.4 mph11.9 kmh 29.51 in999.3 mb 0.00 in0.0 mm 0.00 in0.0 mm 0.00 in0.0 mm
09:30 AM 55.0°F12.8°C 46.2°F7.9°C 72% 4.6 mph NW7.4 kmh NW 9.8 mph15.8 kmh 29.51 in999.3 mb 0.00 in0.0 mm 0.00 in0.0 mm 0.00 in0.0 mm
09:35 AM 55.3°F12.9°C 46.4°F8.0°C 72% 4.4 mph NW7.1 kmh NW 9.8 mph15.8 kmh 29.51 in999.3 mb 0.00 in0.0 mm 0.00 in0.0 mm 0.00 in0.0 mm
09:40 AM 55.7°F13.2°C 46.8°F8.2°C 72% 7.9 mph NW12.7 kmh NW 15.0 mph24.1 kmh 29.51 in999.3 mb 0.00 in0.0 mm 0.00 in0.0 mm 0.00 in0.0 mm
09:45 AM 55.9°F13.3°C 47.0°F8.3°C 72% 5.7 mph N9.2 kmh N 9.8 mph15.8 kmh 29.51 in999.3 mb 0.00 in0.0 mm 0.00 in0.0 mm 0.00 in0.0 mm
09:50 AM 56.1°F13.4°C 47.2°F8.4°C 72% 4.0 mph NW6.4 kmh NW 12.3 mph19.8 kmh 29.51 in999.3 mb 0.00 in0.0 mm 0.00 in0.0 mm 0.00 in0.0 mm
09:55 AM 56.2°F13.4°C 46.4°F8.0°C 70% 5.3 mph NW8.5 kmh NW 7.4 mph11.9 kmh 29.51 in999.3 mb 0.00 in0.0 mm 0.00 in0.0 mm 0.00 in0.0 mm
10:00 AM 56.5°F13.6°C 45.7°F7.6°C 67% 5.7 mph NW9.2 kmh NW 12.3 mph19.8 kmh 29.52 in999.7 mb 0.00 in0.0 mm 0.00 in0.0 mm 0.00 in0.0 mm
10:05 AM 56.9°F13.8°C 45.0°F7.2°C 64% 6.2 mph NNW10.0 kmh NNW 9.8 mph15.8 kmh 29.52 in999.7 mb 0.00 in0.0 mm 0.00 in0.0 mm 0.00 in0.0 mm
10:10 AM 57.3°F14.1°C 46.4°F8.0°C 67% 2.8 mph WNW4.5 kmh WNW 7.4 mph11.9 kmh 29.51 in999.3 mb 0.00 in0.0 mm 0.00 in0.0 mm 0.00 in0.0 mm
10:15 AM 57.4°F14.1°C 47.4°F8.6°C 69% 5.4 mph NW8.7 kmh NW 9.8 mph15.8 kmh 29.51 in999.3 mb 0.00 in0.0 mm 0.00 in0.0 mm 0.00 in0.0 mm
10:20 AM 57.4°F14.1°C 47.9°F8.8°C 70% 6.2 mph NW10.0 kmh NW 15.0 mph24.1 kmh 29.52 in999.7 mb 0.00 in0.0 mm 0.00 in0.0 mm 0.00 in0.0 mm
10:25 AM 57.6°F14.2°C 47.6°F8.7°C 69% 5.7 mph N9.2 kmh N 12.3 mph19.8 kmh 29.51 in999.3 mb 0.00 in0.0 mm 0.00 in0.0 mm 0.00 in0.0 mm
10:30 AM 57.4°F14.1°C 47.0°F8.3°C 68% 5.3 mph W8.5 kmh W 15.0 mph24.1 kmh 29.52 in999.7 mb 0.00 in0.0 mm 0.00 in0.0 mm 0.00 in0.0 mm
10:35 AM 57.3°F14.1°C 45.9°F7.7°C 66% 5.4 mph NNW8.7 kmh NNW 9.8 mph15.8 kmh 29.52 in999.7 mb 0.00 in0.0 mm 0.00 in0.0 mm 0.00 in0.0 mm
10:40 AM 57.2°F14.0°C 45.1°F7.3°C 64% 6.0 mph NW9.7 kmh NW 9.8 mph15.8 kmh 29.52 in999.7 mb 0.00 in0.0 mm 0.00 in0.0 mm 0.00 in0.0 mm
10:45 AM 57.4°F14.1°C 44.6°F7.0°C 62% 7.6 mph NNW12.2 kmh NNW 17.4 mph28.0 kmh 29.52 in999.7 mb 0.00 in0.0 mm 0.00 in0.0 mm 0.00 in0.0 mm
10:50 AM 57.9°F14.4°C 44.3°F6.8°C 60% 5.0 mph NNW8.0 kmh NNW 9.8 mph15.8 kmh 29.52 in999.7 mb 0.00 in0.0 mm 0.00 in0.0 mm 0.00 in0.0 mm
10:55 AM 58.3°F14.6°C 44.9°F7.2°C 61% 6.2 mph WNW10.0 kmh WNW 7.4 mph11.9 kmh 29.52 in999.7 mb 0.00 in0.0 mm 0.00 in0.0 mm 0.00 in0.0 mm
11:00 AM 58.5°F14.7°C 45.9°F7.7°C 63% 4.5 mph N7.2 kmh N 12.3 mph19.8 kmh 29.52 in999.7 mb 0.00 in0.0 mm 0.00 in0.0 mm 0.00 in0.0 mm
11:05 AM 58.7°F14.8°C 45.7°F7.6°C 62% 4.7 mph WNW7.6 kmh WNW 9.8 mph15.8 kmh 29.52 in999.7 mb 0.00 in0.0 mm 0.00 in0.0 mm 0.00 in0.0 mm
11:10 AM 59.1°F15.1°C 45.5°F7.5°C 61% 4.9 mph NW7.9 kmh NW 9.8 mph15.8 kmh 29.52 in999.7 mb 0.00 in0.0 mm 0.00 in0.0 mm 0.00 in0.0 mm
11:15 AM 59.4°F15.2°C 45.9°F7.7°C 61% 4.2 mph N6.8 kmh N 7.4 mph11.9 kmh 29.52 in999.7 mb 0.00 in0.0 mm 0.00 in0.0 mm 0.00 in0.0 mm
11:20 AM 59.7°F15.4°C 45.7°F7.6°C 60% 4.7 mph NW7.6 kmh NW 9.8 mph15.8 kmh 29.52 in999.7 mb 0.00 in0.0 mm 0.00 in0.0 mm 0.00 in0.0 mm
11:25 AM 60.1°F15.6°C 45.4°F7.4°C 58% 3.3 mph NW5.3 kmh NW 7.4 mph11.9 kmh 29.52 in999.7 mb 0.00 in0.0 mm 0.00 in0.0 mm 0.00 in0.0 mm
11:30 AM 60.3°F15.7°C 45.5°F7.5°C 58% 3.9 mph NW6.3 kmh NW 7.4 mph11.9 kmh 29.51 in999.3 mb 0.00 in0.0 mm 0.00 in0.0 mm 0.00 in0.0 mm
11:35 AM 60.4°F15.8°C 45.5°F7.5°C 58% 2.2 mph NW3.5 kmh NW 7.4 mph11.9 kmh 29.52 in999.7 mb 0.00 in0.0 mm 0.00 in0.0 mm 0.00 in0.0 mm
11:40 AM 61.0°F16.1°C 46.1°F7.8°C 58% 2.7 mph NNW4.3 kmh NNW 4.9 mph7.9 kmh 29.51 in999.3 mb 0.00 in0.0 mm 0.00 in0.0 mm 0.00 in0.0 mm
11:45 AM 61.2°F16.2°C 46.1°F7.8°C 58% 2.5 mph NW4.0 kmh NW 4.9 mph7.9 kmh 29.51 in999.3 mb 0.00 in0.0 mm 0.00 in0.0 mm 0.00 in0.0 mm
11:50 AM 61.5°F16.4°C 46.2°F7.9°C 57% 3.6 mph NNW5.8 kmh NNW 9.8 mph15.8 kmh 29.51 in999.3 mb 0.00 in0.0 mm 0.00 in0.0 mm 0.00 in0.0 mm
11:55 AM 61.8°F16.6°C 45.2°F7.3°C 54% 3.5 mph NW5.6 kmh NW 7.4 mph11.9 kmh 29.51 in999.3 mb 0.00 in0.0 mm 0.00 in0.0 mm 0.00 in0.0 mm
12:00 PM 62.0°F16.7°C 46.3°F7.9°C 56% 4.3 mph WSW6.9 kmh WSW 7.4 mph11.9 kmh 29.51 in999.3 mb 0.00 in0.0 mm 0.00 in0.0 mm 0.00 in0.0 mm
12:05 PM 62.2°F16.8°C 46.2°F7.9°C 56% 4.4 mph WNW7.1 kmh WNW 9.8 mph15.8 kmh 29.51 in999.3 mb 0.00 in0.0 mm 0.00 in0.0 mm 0.00 in0.0 mm
12:10 PM 62.5°F16.9°C 45.2°F7.3°C 53% 5.3 mph NW8.5 kmh NW 9.8 mph15.8 kmh 29.51 in999.3 mb 0.00 in0.0 mm 0.00 in0.0 mm 0.00 in0.0 mm
12:15 PM 62.7°F17.1°C 45.8°F7.7°C 54% 3.1 mph NNW5.0 kmh NNW 7.4 mph11.9 kmh 29.51 in999.3 mb 0.00 in0.0 mm 0.00 in0.0 mm 0.00 in0.0 mm
12:20 PM 62.9°F17.2°C 45.7°F7.6°C 54% 4.3 mph NW6.9 kmh NW 7.4 mph11.9 kmh 29.50 in999.0 mb 0.00 in0.0 mm 0.00 in0.0 mm 0.00 in0.0 mm
12:25 PM 63.0°F17.2°C 45.5°F7.5°C 53% 5.9 mph NW9.5 kmh NW 15.0 mph24.1 kmh 29.51 in999.3 mb 0.00 in0.0 mm 0.00 in0.0 mm 0.00 in0.0 mm
12:30 PM 63.2°F17.3°C 45.2°F7.3°C 52% 3.5 mph NW5.6 kmh NW 9.8 mph15.8 kmh 29.51 in999.3 mb 0.00 in0.0 mm 0.00 in0.0 mm 0.00 in0.0 mm
12:35 PM 63.3°F17.4°C 45.5°F7.5°C 52% 3.8 mph W6.1 kmh W 7.4 mph11.9 kmh 29.52 in999.7 mb 0.00 in0.0 mm 0.00 in0.0 mm 0.00 in0.0 mm
12:40 PM 63.3°F17.4°C 46.0°F7.8°C 53% 4.0 mph NW6.4 kmh NW 7.4 mph11.9 kmh 29.50 in999.0 mb 0.00 in0.0 mm 0.00 in0.0 mm 0.00 in0.0 mm
12:45 PM 63.7°F17.6°C 45.6°F7.6°C 52% 3.4 mph NW5.5 kmh NW 9.8 mph15.8 kmh 29.50 in999.0 mb 0.00 in0.0 mm 0.00 in0.0 mm 0.00 in0.0 mm
12:50 PM 63.8°F17.7°C 46.0°F7.8°C 52% 6.6 mph NNW10.6 kmh NNW 12.3 mph19.8 kmh 29.50 in999.0 mb 0.00 in0.0 mm 0.00 in0.0 mm 0.00 in0.0 mm
12:55 PM 63.9°F17.7°C 46.4°F8.0°C 53% 3.2 mph NW5.1 kmh NW 7.4 mph11.9 kmh 29.50 in999.0 mb 0.00 in0.0 mm 0.00 in0.0 mm 0.00 in0.0 mm
01:00 PM 64.0°F17.8°C 46.0°F7.8°C 52% 5.9 mph NW9.5 kmh NW 9.8 mph15.8 kmh 29.50 in999.0 mb 0.00 in0.0 mm 0.00 in0.0 mm 0.00 in0.0 mm
01:05 PM 64.1°F17.8°C 46.2°F7.9°C 52% 5.2 mph WNW8.4 kmh WNW 9.8 mph15.8 kmh 29.50 in999.0 mb 0.00 in0.0 mm 0.00 in0.0 mm 0.00 in0.0 mm
01:10 PM 64.4°F18.0°C 45.9°F7.7°C 51% 5.7 mph NW9.2 kmh NW 15.0 mph24.1 kmh 29.49 in998.6 mb 0.00 in0.0 mm 0.00 in0.0 mm 0.00 in0.0 mm
01:15 PM 64.4°F18.0°C 45.6°F7.6°C 50% 3.7 mph WSW6.0 kmh WSW 9.8 mph15.8 kmh 29.50 in999.0 mb 0.00 in0.0 mm 0.00 in0.0 mm 0.00 in0.0 mm
01:20 PM 64.6°F18.1°C 47.1°F8.4°C 53% 2.0 mph NW3.2 kmh NW 4.9 mph7.9 kmh 29.49 in998.6 mb 0.00 in0.0 mm 0.00 in0.0 mm 0.00 in0.0 mm
01:25 PM 64.8°F18.2°C 46.6°F8.1°C 52% 5.4 mph WNW8.7 kmh WNW 12.3 mph19.8 kmh 29.49 in998.6 mb 0.00 in0.0 mm 0.00 in0.0 mm 0.00 in0.0 mm
01:30 PM 64.9°F18.3°C 46.4°F8.0°C 51% 3.1 mph W5.0 kmh W 9.8 mph15.8 kmh 29.49 in998.6 mb 0.00 in0.0 mm 0.00 in0.0 mm 0.00 in0.0 mm
01:35 PM 65.2°F18.4°C 45.8°F7.7°C 50% 4.3 mph W6.9 kmh W 9.8 mph15.8 kmh 29.48 in998.3 mb 0.00 in0.0 mm 0.00 in0.0 mm 0.00 in0.0 mm
01:40 PM 65.3°F18.5°C 45.6°F7.6°C 49% 4.7 mph NNW7.6 kmh NNW 12.3 mph19.8 kmh 29.48 in998.3 mb 0.00 in0.0 mm 0.00 in0.0 mm 0.00 in0.0 mm
01:45 PM 65.6°F18.7°C 45.5°F7.5°C 48% 3.3 mph NW5.3 kmh NW 9.8 mph15.8 kmh 29.48 in998.3 mb 0.00 in0.0 mm 0.00 in0.0 mm 0.00 in0.0 mm
01:50 PM 65.8°F18.8°C 46.4°F8.0°C 50% 4.1 mph WNW6.6 kmh WNW 9.8 mph15.8 kmh 29.47 in998.0 mb 0.00 in0.0 mm 0.00 in0.0 mm 0.00 in0.0 mm
01:55 PM 66.0°F18.9°C 46.6°F8.1°C 50% 4.0 mph NW6.4 kmh NW 9.8 mph15.8 kmh 29.47 in998.0 mb 0.00 in0.0 mm 0.00 in0.0 mm 0.00 in0.0 mm
02:00 PM 66.3°F19.1°C 45.8°F7.7°C 48% 3.8 mph NW6.1 kmh NW 7.4 mph11.9 kmh 29.47 in998.0 mb 0.00 in0.0 mm 0.00 in0.0 mm 0.00 in0.0 mm
02:05 PM 66.4°F19.1°C 45.1°F7.3°C 46% 1.4 mph W2.3 kmh W 4.9 mph7.9 kmh 29.47 in998.0 mb 0.00 in0.0 mm 0.00 in0.0 mm 0.00 in0.0 mm
02:10 PM 66.6°F19.2°C 45.3°F7.4°C 46% 5.5 mph NW8.9 kmh NW 9.8 mph15.8 kmh 29.47 in998.0 mb 0.00 in0.0 mm 0.00 in0.0 mm 0.00 in0.0 mm
02:15 PM 66.8°F19.3°C 46.0°F7.8°C 47% 3.1 mph W5.0 kmh W 7.4 mph11.9 kmh 29.47 in998.0 mb 0.00 in0.0 mm 0.00 in0.0 mm 0.00 in0.0 mm
02:20 PM 66.9°F19.4°C 45.2°F7.3°C 46% 2.8 mph W4.5 kmh W 4.9 mph7.9 kmh 29.47 in998.0 mb 0.00 in0.0 mm 0.00 in0.0 mm 0.00 in0.0 mm
02:25 PM 67.0°F19.4°C 45.1°F7.3°C 45% 4.1 mph NW6.6 kmh NW 7.4 mph11.9 kmh 29.47 in998.0 mb 0.00 in0.0 mm 0.00 in0.0 mm 0.00 in0.0 mm
02:30 PM 67.1°F19.5°C 44.5°F6.9°C 44% 5.8 mph NW9.3 kmh NW 9.8 mph15.8 kmh 29.47 in998.0 mb 0.00 in0.0 mm 0.00 in0.0 mm 0.00 in0.0 mm
02:35 PM 67.1°F19.5°C 44.2°F6.8°C 44% 4.0 mph NW6.4 kmh NW 7.4 mph11.9 kmh 29.47 in998.0 mb 0.00 in0.0 mm 0.00 in0.0 mm 0.00 in0.0 mm
02:40 PM 67.3°F19.6°C 44.6°F7.0°C 44% 3.5 mph NW5.6 kmh NW 7.4 mph11.9 kmh 29.47 in998.0 mb 0.00 in0.0 mm 0.00 in0.0 mm 0.00 in0.0 mm
02:45 PM 67.5°F19.7°C 44.8°F7.1°C 44% 3.7 mph WNW6.0 kmh WNW 7.4 mph11.9 kmh 29.47 in998.0 mb 0.00 in0.0 mm 0.00 in0.0 mm 0.00 in0.0 mm
02:50 PM 67.5°F19.7°C 45.0°F7.2°C 44% 4.2 mph NW6.8 kmh NW 9.8 mph15.8 kmh 29.47 in998.0 mb 0.00 in0.0 mm 0.00 in0.0 mm 0.00 in0.0 mm
02:55 PM 67.6°F19.8°C 44.9°F7.2°C 44% 4.9 mph WNW7.9 kmh WNW 9.8 mph15.8 kmh 29.47 in998.0 mb 0.00 in0.0 mm 0.00 in0.0 mm 0.00 in0.0 mm
03:00 PM 67.6°F19.8°C 45.0°F7.2°C 44% 3.4 mph W5.5 kmh W 7.4 mph11.9 kmh 29.47 in998.0 mb 0.00 in0.0 mm 0.00 in0.0 mm 0.00 in0.0 mm
03:05 PM 67.8°F19.9°C 44.6°F7.0°C 43% 2.7 mph W4.3 kmh W 9.8 mph15.8 kmh 29.47 in998.0 mb 0.00 in0.0 mm 0.00 in0.0 mm 0.00 in0.0 mm
03:10 PM 68.1°F20.1°C 44.1°F6.7°C 42% 5.9 mph W9.5 kmh W 15.0 mph24.1 kmh 29.46 in997.6 mb 0.00 in0.0 mm 0.00 in0.0 mm 0.00 in0.0 mm
03:15 PM 68.1°F20.1°C 45.1°F7.3°C 44% 4.0 mph NNW6.4 kmh NNW 7.4 mph11.9 kmh 29.46 in997.6 mb 0.00 in0.0 mm 0.00 in0.0 mm 0.00 in0.0 mm
03:20 PM 68.1°F20.1°C 46.3°F7.9°C 46% 3.3 mph N5.3 kmh N 7.4 mph11.9 kmh 29.45 in997.3 mb 0.00 in0.0 mm 0.00 in0.0 mm 0.00 in0.0 mm
03:25 PM 68.3°F20.2°C 45.4°F7.4°C 44% 3.4 mph NNW5.5 kmh NNW 9.8 mph15.8 kmh 29.45 in997.3 mb 0.00 in0.0 mm 0.00 in0.0 mm 0.00 in0.0 mm
03:30 PM 68.4°F20.2°C 45.8°F7.7°C 44% 4.9 mph WNW7.9 kmh WNW 9.8 mph15.8 kmh 29.45 in997.3 mb 0.00 in0.0 mm 0.00 in0.0 mm 0.00 in0.0 mm
03:35 PM 68.4°F20.2°C 46.8°F8.2°C 46% 4.8 mph WNW7.7 kmh WNW 9.8 mph15.8 kmh 29.45 in997.3 mb 0.00 in0.0 mm 0.00 in0.0 mm 0.00 in0.0 mm
03:40 PM 68.3°F20.2°C 44.8°F7.1°C 43% 4.4 mph NNW7.1 kmh NNW 9.8 mph15.8 kmh 29.45 in997.3 mb 0.00 in0.0 mm 0.00 in0.0 mm 0.00 in0.0 mm
03:45 PM 68.2°F20.1°C 44.4°F6.9°C 42% 5.0 mph NW8.0 kmh NW 9.8 mph15.8 kmh 29.44 in997.0 mb 0.00 in0.0 mm 0.00 in0.0 mm 0.00 in0.0 mm
03:50 PM 68.2°F20.1°C 45.6°F7.6°C 44% 4.0 mph NNW6.4 kmh NNW 7.4 mph11.9 kmh 29.44 in997.0 mb 0.00 in0.0 mm 0.00 in0.0 mm 0.00 in0.0 mm
03:55 PM 68.2°F20.1°C 44.7°F7.1°C 43% 3.3 mph WNW5.3 kmh WNW 7.4 mph11.9 kmh 29.44 in997.0 mb 0.00 in0.0 mm 0.00 in0.0 mm 0.00 in0.0 mm
04:00 PM 68.4°F20.2°C 44.6°F7.0°C 42% 3.4 mph NW5.5 kmh NW 7.4 mph11.9 kmh 29.44 in997.0 mb 0.00 in0.0 mm 0.00 in0.0 mm 0.00 in0.0 mm
04:05 PM 68.5°F20.3°C 45.1°F7.3°C 43% 5.6 mph WNW9.0 kmh WNW 12.3 mph19.8 kmh 29.43 in996.6 mb 0.00 in0.0 mm 0.00 in0.0 mm 0.00 in0.0 mm
04:10 PM 68.5°F20.3°C 45.1°F7.3°C 43% 5.2 mph NNW8.4 kmh NNW 7.4 mph11.9 kmh 29.44 in997.0 mb 0.00 in0.0 mm 0.00 in0.0 mm 0.00 in0.0 mm
04:15 PM 68.5°F20.3°C 45.3°F7.4°C 43% 3.1 mph WNW5.0 kmh WNW 4.9 mph7.9 kmh 29.44 in997.0 mb 0.00 in0.0 mm 0.00 in0.0 mm 0.00 in0.0 mm
04:20 PM 68.6°F20.3°C 45.4°F7.4°C 43% 4.6 mph NW7.4 kmh NW 7.4 mph11.9 kmh 29.44 in997.0 mb 0.00 in0.0 mm 0.00 in0.0 mm 0.00 in0.0 mm
04:25 PM 68.6°F20.3°C 45.2°F7.3°C 43% 1.7 mph N2.7 kmh N 4.9 mph7.9 kmh 29.43 in996.6 mb 0.00 in0.0 mm 0.00 in0.0 mm 0.00 in0.0 mm
04:30 PM 68.6°F20.3°C 46.0°F7.8°C 44% 5.4 mph N8.7 kmh N 12.3 mph19.8 kmh 29.43 in996.6 mb 0.00 in0.0 mm 0.00 in0.0 mm 0.00 in0.0 mm
04:35 PM 68.6°F20.3°C 46.2°F7.9°C 45% 3.0 mph WNW4.8 kmh WNW 7.4 mph11.9 kmh 29.43 in996.6 mb 0.00 in0.0 mm 0.00 in0.0 mm 0.00 in0.0 mm
04:40 PM 68.7°F20.4°C 45.4°F7.4°C 43% 5.2 mph W8.4 kmh W 12.3 mph19.8 kmh 29.43 in996.6 mb 0.00 in0.0 mm 0.00 in0.0 mm 0.00 in0.0 mm
04:45 PM 68.7°F20.4°C 45.3°F7.4°C 43% 3.4 mph W5.5 kmh W 7.4 mph11.9 kmh 29.43 in996.6 mb 0.00 in0.0 mm 0.00 in0.0 mm 0.00 in0.0 mm
04:50 PM 68.8°F20.4°C 46.0°F7.8°C 44% 2.0 mph NW3.2 kmh NW 4.9 mph7.9 kmh 29.43 in996.6 mb 0.00 in0.0 mm 0.00 in0.0 mm 0.00 in0.0 mm
04:55 PM 69.0°F20.6°C 44.9°F7.2°C 42% 2.7 mph NW4.3 kmh NW 4.9 mph7.9 kmh 29.42 in996.3 mb 0.00 in0.0 mm 0.00 in0.0 mm 0.00 in0.0 mm
05:00 PM 69.0°F20.6°C 45.1°F7.3°C 42% 5.7 mph N9.2 kmh N 9.8 mph15.8 kmh 29.42 in996.3 mb 0.00 in0.0 mm 0.00 in0.0 mm 0.00 in0.0 mm
05:05 PM 69.1°F20.6°C 45.7°F7.6°C 43% 3.6 mph NW5.8 kmh NW 7.4 mph11.9 kmh 29.43 in996.6 mb 0.00 in0.0 mm 0.00 in0.0 mm 0.00 in0.0 mm
05:10 PM 69.1°F20.6°C 45.7°F7.6°C 43% 2.5 mph WSW4.0 kmh WSW 4.9 mph7.9 kmh 29.43 in996.6 mb 0.00 in0.0 mm 0.00 in0.0 mm 0.00 in0.0 mm
05:15 PM 69.1°F20.6°C 45.7°F7.6°C 43% 2.5 mph WSW4.0 kmh WSW 4.9 mph7.9 kmh 29.43 in996.6 mb 0.00 in0.0 mm 0.00 in0.0 mm 0.00 in0.0 mm
05:20 PM 69.1°F20.6°C 44.4°F6.9°C 41% 1.6 mph WNW2.6 kmh WNW 4.9 mph7.9 kmh 29.42 in996.3 mb 0.00 in0.0 mm 0.00 in0.0 mm 0.00 in0.0 mm
05:25 PM 69.1°F20.6°C 45.0°F7.2°C 42% 3.3 mph W5.3 kmh W 7.4 mph11.9 kmh 29.43 in996.6 mb 0.00 in0.0 mm 0.00 in0.0 mm 0.00 in0.0 mm
05:30 PM 69.2°F20.7°C 44.7°F7.1°C 41% 3.9 mph NW6.3 kmh NW 7.4 mph11.9 kmh 29.42 in996.3 mb 0.00 in0.0 mm 0.00 in0.0 mm 0.00 in0.0 mm
05:35 PM 69.3°F20.7°C 44.9°F7.2°C 42% 3.8 mph NW6.1 kmh NW 7.4 mph11.9 kmh 29.42 in996.3 mb 0.00 in0.0 mm 0.00 in0.0 mm 0.00 in0.0 mm
05:40 PM 69.1°F20.6°C 44.6°F7.0°C 41% 0.9 mph W1.4 kmh W 2.5 mph4.0 kmh 29.42 in996.3 mb 0.00 in0.0 mm 0.00 in0.0 mm 0.00 in0.0 mm
05:45 PM 69.3°F20.7°C 45.2°F7.3°C 42% 4.3 mph NW6.9 kmh NW 9.8 mph15.8 kmh 29.41 in995.9 mb 0.00 in0.0 mm 0.00 in0.0 mm 0.00 in0.0 mm
05:50 PM 69.3°F20.7°C 45.1°F7.3°C 42% 1.5 mph WNW2.4 kmh WNW 4.9 mph7.9 kmh 29.42 in996.3 mb 0.00 in0.0 mm 0.00 in0.0 mm 0.00 in0.0 mm
05:55 PM 69.4°F20.8°C 44.2°F6.8°C 40% 2.2 mph NW3.5 kmh NW 4.9 mph7.9 kmh 29.42 in996.3 mb 0.00 in0.0 mm 0.00 in0.0 mm 0.00 in0.0 mm
06:00 PM 69.4°F20.8°C 44.7°F7.1°C 41% 4.7 mph NW7.6 kmh NW 9.8 mph15.8 kmh 29.42 in996.3 mb 0.00 in0.0 mm 0.00 in0.0 mm 0.00 in0.0 mm
06:05 PM 69.4°F20.8°C 44.7°F7.1°C 41% 3.4 mph WNW5.5 kmh WNW 4.9 mph7.9 kmh 29.42 in996.3 mb 0.00 in0.0 mm 0.00 in0.0 mm 0.00 in0.0 mm
06:10 PM 69.4°F20.8°C 44.7°F7.1°C 41% 3.7 mph WNW6.0 kmh WNW 4.9 mph7.9 kmh 29.42 in996.3 mb 0.00 in0.0 mm 0.00 in0.0 mm 0.00 in0.0 mm
06:15 PM 69.4°F20.8°C 44.7°F7.1°C 41% 5.0 mph NNW8.0 kmh NNW 7.4 mph11.9 kmh 29.41 in995.9 mb 0.00 in0.0 mm 0.00 in0.0 mm 0.00 in0.0 mm
06:20 PM 69.4°F20.8°C 45.3°F7.4°C 42% 7.2 mph NW11.6 kmh NW 12.3 mph19.8 kmh 29.41 in995.9 mb 0.00 in0.0 mm 0.00 in0.0 mm 0.00 in0.0 mm
06:25 PM 69.4°F20.8°C 45.3°F7.4°C 42% 7.2 mph NW11.6 kmh NW 12.3 mph19.8 kmh 29.42 in996.3 mb 0.00 in0.0 mm 0.00 in0.0 mm 0.00 in0.0 mm
06:30 PM 69.3°F20.7°C 45.2°F7.3°C 42% 5.6 mph N9.0 kmh N 9.8 mph15.8 kmh 29.42 in996.3 mb 0.00 in0.0 mm 0.00 in0.0 mm 0.00 in0.0 mm
06:35 PM 69.2°F20.7°C 45.2°F7.3°C 42% 4.4 mph NW7.1 kmh NW 9.8 mph15.8 kmh 29.42 in996.3 mb 0.00 in0.0 mm 0.00 in0.0 mm 0.00 in0.0 mm
06:40 PM 69.0°F20.6°C 44.7°F7.1°C 42% 6.5 mph NNW10.5 kmh NNW 9.8 mph15.8 kmh 29.42 in996.3 mb 0.00 in0.0 mm 0.00 in0.0 mm 0.00 in0.0 mm
06:45 PM 68.9°F20.5°C 44.8°F7.1°C 42% 3.4 mph NNW5.5 kmh NNW 7.4 mph11.9 kmh 29.42 in996.3 mb 0.00 in0.0 mm 0.00 in0.0 mm 0.00 in0.0 mm
06:55 PM 68.9°F20.5°C 45.5°F7.5°C 43% 0.2 mph W0.3 kmh W 2.5 mph4.0 kmh 29.42 in996.3 mb 0.00 in0.0 mm 0.00 in0.0 mm 0.00 in0.0 mm
07:00 PM 68.9°F20.5°C 45.1°F7.3°C 42% 2.8 mph N4.5 kmh N 7.4 mph11.9 kmh 29.42 in996.3 mb 0.00 in0.0 mm 0.00 in0.0 mm 0.00 in0.0 mm
07:05 PM 68.9°F20.5°C 45.5°F7.5°C 43% 4.5 mph N7.2 kmh N 7.4 mph11.9 kmh 29.42 in996.3 mb 0.00 in0.0 mm 0.00 in0.0 mm 0.00 in0.0 mm
07:10 PM 68.9°F20.5°C 45.5°F7.5°C 43% 4.5 mph N7.2 kmh N 7.4 mph11.9 kmh 29.42 in996.3 mb 0.00 in0.0 mm 0.00 in0.0 mm 0.00 in0.0 mm
07:15 PM 68.7°F20.4°C 45.9°F7.7°C 44% 1.5 mph NW2.4 kmh NW 2.5 mph4.0 kmh 29.42 in996.3 mb 0.00 in0.0 mm 0.00 in0.0 mm 0.00 in0.0 mm
07:36 PM 68.7°F20.4°C 45.9°F7.7°C 44% 2.0 mph NW3.2 kmh NW 2.5 mph4.0 kmh 29.42 in996.3 mb 0.00 in0.0 mm 0.00 in0.0 mm 0.00 in0.0 mm
07:37 PM 68.7°F20.4°C 45.9°F7.7°C 44% 2.0 mph NW3.2 kmh NW 2.5 mph4.0 kmh 29.42 in996.3 mb 0.00 in0.0 mm 0.00 in0.0 mm 0.00 in0.0 mm
07:39 PM 68.7°F20.4°C 45.9°F7.7°C 44% 2.0 mph NW3.2 kmh NW 2.5 mph4.0 kmh 29.42 in996.3 mb 0.00 in0.0 mm 0.00 in0.0 mm 0.00 in0.0 mm
07:40 PM 68.4°F20.2°C 48.3°F9.1°C 49% 3.4 mph NNW5.5 kmh NNW 9.8 mph15.8 kmh 29.42 in996.3 mb 0.00 in0.0 mm 0.00 in0.0 mm 0.00 in0.0 mm
07:45 PM 68.0°F20.0°C 48.1°F8.9°C 49% 3.1 mph NW5.0 kmh NW 7.4 mph11.9 kmh 29.42 in996.3 mb 0.00 in0.0 mm 0.00 in0.0 mm 0.00 in0.0 mm
07:50 PM 67.5°F19.7°C 48.2°F9.0°C 50% 2.1 mph NNW3.4 kmh NNW 7.4 mph11.9 kmh 29.42 in996.3 mb 0.00 in0.0 mm 0.00 in0.0 mm 0.00 in0.0 mm
07:55 PM 67.5°F19.7°C 48.2°F9.0°C 50% 0.2 mph NNW0.3 kmh NNW 2.5 mph4.0 kmh 29.42 in996.3 mb 0.00 in0.0 mm 0.00 in0.0 mm 0.00 in0.0 mm
08:00 PM 67.5°F19.7°C 48.2°F9.0°C 50% 0.2 mph NNW0.3 kmh NNW 2.5 mph4.0 kmh 29.42 in996.3 mb 0.00 in0.0 mm 0.00 in0.0 mm 0.00 in0.0 mm
08:05 PM 67.1°F19.5°C 48.4°F9.1°C 51% 1.3 mph NW2.1 kmh NW 4.9 mph7.9 kmh 29.42 in996.3 mb 0.00 in0.0 mm 0.00 in0.0 mm 0.00 in0.0 mm
08:10 PM 66.2°F19.0°C 48.1°F8.9°C 52% 1.4 mph WNW2.3 kmh WNW 4.9 mph7.9 kmh 29.42 in996.3 mb 0.00 in0.0 mm 0.00 in0.0 mm 0.00 in0.0 mm
08:15 PM 65.5°F18.6°C 46.7°F8.2°C 51% 0.3 mph WNW0.5 kmh WNW 2.5 mph4.0 kmh 29.42 in996.3 mb 0.00 in0.0 mm 0.00 in0.0 mm 0.00 in0.0 mm
08:20 PM 64.9°F18.3°C 46.0°F7.8°C 50% 0.5 mph NW0.8 kmh NW 2.5 mph4.0 kmh 29.42 in996.3 mb 0.00 in0.0 mm 0.00 in0.0 mm 0.00 in0.0 mm
08:25 PM 64.5°F18.1°C 46.0°F7.8°C 51% 1.1 mph NW1.8 kmh NW 4.9 mph7.9 kmh 29.43 in996.6 mb 0.00 in0.0 mm 0.00 in0.0 mm 0.00 in0.0 mm
08:30 PM 64.2°F17.9°C 45.7°F7.6°C 51% 0.4 mph NW0.6 kmh NW 2.5 mph4.0 kmh 29.43 in996.6 mb 0.00 in0.0 mm 0.00 in0.0 mm 0.00 in0.0 mm
08:35 PM 64.2°F17.9°C 45.6°F7.6°C 51% 0.2 mph NNW0.3 kmh NNW 2.5 mph4.0 kmh 29.43 in996.6 mb 0.00 in0.0 mm 0.00 in0.0 mm 0.00 in0.0 mm
08:40 PM 64.0°F17.8°C 46.0°F7.8°C 52% 0.3 mph NW0.5 kmh NW 2.5 mph4.0 kmh 29.44 in997.0 mb 0.00 in0.0 mm 0.00 in0.0 mm 0.00 in0.0 mm
08:45 PM 63.7°F17.6°C 45.7°F7.6°C 52% 0.3 mph NW0.5 kmh NW 2.5 mph4.0 kmh 29.43 in996.6 mb 0.00 in0.0 mm 0.00 in0.0 mm 0.00 in0.0 mm
08:50 PM 63.7°F17.6°C 45.7°F7.6°C 52% Calm Calm -- 29.43 in996.6 mb 0.00 in0.0 mm 0.00 in0.0 mm 0.00 in0.0 mm
08:55 PM 63.6°F17.6°C 46.6°F8.1°C 54% Calm Calm -- 29.43 in996.6 mb 0.00 in0.0 mm 0.00 in0.0 mm 0.00 in0.0 mm
09:00 PM 63.2°F17.3°C 47.6°F8.7°C 57% Calm Calm -- 29.44 in997.0 mb 0.00 in0.0 mm 0.00 in0.0 mm 0.00 in0.0 mm
09:05 PM 62.9°F17.2°C 46.9°F8.3°C 56% Calm Calm -- 29.44 in997.0 mb 0.00 in0.0 mm 0.00 in0.0 mm 0.00 in0.0 mm
09:10 PM 62.4°F16.9°C 46.6°F8.1°C 56% Calm Calm -- 29.44 in997.0 mb 0.00 in0.0 mm 0.00 in0.0 mm 0.00 in0.0 mm
09:15 PM 62.0°F16.7°C 47.2°F8.4°C 58% Calm Calm -- 29.44 in997.0 mb 0.00 in0.0 mm 0.00 in0.0 mm 0.00 in0.0 mm
09:20 PM 61.7°F16.5°C 47.4°F8.6°C 59% Calm Calm -- 29.45 in997.3 mb 0.00 in0.0 mm 0.00 in0.0 mm 0.00 in0.0 mm
09:25 PM 61.5°F16.4°C 47.5°F8.6°C 60% Calm Calm -- 29.45 in997.3 mb 0.00 in0.0 mm 0.00 in0.0 mm 0.00 in0.0 mm
09:30 PM 61.5°F16.4°C 47.5°F8.6°C 60% Calm Calm -- 29.45 in997.3 mb 0.00 in0.0 mm 0.00 in0.0 mm 0.00 in0.0 mm
09:35 PM 61.4°F16.3°C 49.1°F9.5°C 64% Calm Calm -- 29.45 in997.3 mb 0.00 in0.0 mm 0.00 in0.0 mm 0.00 in0.0 mm
09:40 PM 61.3°F16.3°C 49.0°F9.4°C 64% Calm Calm -- 29.44 in997.0 mb 0.00 in0.0 mm 0.00 in0.0 mm 0.00 in0.0 mm
09:45 PM 61.3°F16.3°C 49.0°F9.4°C 64% Calm Calm -- 29.44 in997.0 mb 0.00 in0.0 mm 0.00 in0.0 mm 0.00 in0.0 mm
09:50 PM 61.1°F16.2°C 50.6°F10.3°C 68% Calm Calm -- 29.45 in997.3 mb 0.00 in0.0 mm 0.00 in0.0 mm 0.00 in0.0 mm
09:55 PM 60.8°F16.0°C 50.6°F10.3°C 69% Calm Calm -- 29.46 in997.6 mb 0.00 in0.0 mm 0.00 in0.0 mm 0.00 in0.0 mm
10:00 PM 60.8°F16.0°C 50.6°F10.3°C 69% Calm Calm -- 29.45 in997.3 mb 0.00 in0.0 mm 0.00 in0.0 mm 0.00 in0.0 mm
10:05 PM 60.8°F16.0°C 50.6°F10.3°C 69% Calm Calm -- 29.45 in997.3 mb 0.00 in0.0 mm 0.00 in0.0 mm 0.00 in0.0 mm
10:10 PM 60.8°F16.0°C 51.0°F10.6°C 70% Calm Calm -- 29.46 in997.6 mb 0.00 in0.0 mm 0.00 in0.0 mm 0.00 in0.0 mm
10:15 PM 60.8°F16.0°C 51.0°F10.6°C 70% Calm Calm -- 29.46 in997.6 mb 0.00 in0.0 mm 0.00 in0.0 mm 0.00 in0.0 mm
10:25 PM 59.7°F15.4°C 49.9°F9.9°C 70% Calm Calm -- 29.45 in997.3 mb 0.00 in0.0 mm 0.00 in0.0 mm 0.00 in0.0 mm
10:30 PM 59.5°F15.3°C 49.5°F9.7°C 70% Calm Calm 2.5 mph4.0 kmh 29.45 in997.3 mb 0.00 in0.0 mm 0.00 in0.0 mm 0.00 in0.0 mm
10:35 PM 59.5°F15.3°C 49.5°F9.7°C 70% Calm Calm -- 29.45 in997.3 mb 0.00 in0.0 mm 0.00 in0.0 mm 0.00 in0.0 mm
10:40 PM 59.5°F15.3°C 50.1°F10.1°C 71% Calm Calm -- 29.45 in997.3 mb 0.00 in0.0 mm 0.00 in0.0 mm 0.00 in0.0 mm
10:45 PM 59.3°F15.2°C 50.6°F10.3°C 73% Calm Calm -- 29.45 in997.3 mb 0.00 in0.0 mm 0.00 in0.0 mm 0.00 in0.0 mm
10:50 PM 58.6°F14.8°C 50.4°F10.2°C 74% Calm Calm -- 29.46 in997.6 mb 0.00 in0.0 mm 0.00 in0.0 mm 0.00 in0.0 mm
10:55 PM 58.6°F14.8°C 50.7°F10.4°C 75% Calm Calm -- 29.46 in997.6 mb 0.00 in0.0 mm 0.00 in0.0 mm 0.00 in0.0 mm
11:00 PM 58.3°F14.6°C 50.9°F10.5°C 76% Calm Calm -- 29.46 in997.6 mb 0.00 in0.0 mm 0.00 in0.0 mm 0.00 in0.0 mm
11:05 PM 58.0°F14.4°C 51.1°F10.6°C 78% Calm Calm -- 29.45 in997.3 mb 0.00 in0.0 mm 0.00 in0.0 mm 0.00 in0.0 mm
11:10 PM 56.8°F13.8°C 51.0°F10.6°C 81% Calm Calm -- 29.45 in997.3 mb 0.00 in0.0 mm 0.00 in0.0 mm 0.00 in0.0 mm
11:15 PM 56.8°F13.8°C 51.5°F10.8°C 82% Calm Calm -- 29.46 in997.6 mb 0.00 in0.0 mm 0.00 in0.0 mm 0.00 in0.0 mm
11:20 PM 56.7°F13.7°C 51.6°F10.9°C 83% Calm Calm -- 29.46 in997.6 mb 0.00 in0.0 mm 0.00 in0.0 mm 0.00 in0.0 mm
11:25 PM 56.7°F13.7°C 51.6°F10.9°C 83% Calm Calm -- 29.46 in997.6 mb 0.00 in0.0 mm 0.00 in0.0 mm 0.00 in0.0 mm
11:30 PM 55.8°F13.2°C 51.0°F10.6°C 84% Calm Calm -- 29.45 in997.3 mb 0.00 in0.0 mm 0.00 in0.0 mm 0.00 in0.0 mm
11:35 PM 55.8°F13.2°C 51.0°F10.6°C 84% Calm Calm -- 29.45 in997.3 mb 0.00 in0.0 mm 0.00 in0.0 mm 0.00 in0.0 mm
11:40 PM 55.8°F13.2°C 50.7°F10.4°C 83% Calm Calm -- 29.46 in997.6 mb 0.00 in0.0 mm 0.00 in0.0 mm 0.00 in0.0 mm
11:45 PM 55.8°F13.2°C 50.6°F10.3°C 82% Calm Calm -- 29.45 in997.3 mb 0.00 in0.0 mm 0.00 in0.0 mm 0.00 in0.0 mm
11:50 PM 56.1°F13.4°C 50.3°F10.2°C 81% Calm Calm -- 29.45 in997.3 mb 0.00 in0.0 mm 0.00 in0.0 mm 0.00 in0.0 mm
11:55 PM 56.1°F13.4°C 50.0°F10.0°C 80% Calm Calm -- 29.45 in997.3 mb 0.00 in0.0 mm 0.00 in0.0 mm 0.00 in0.0 mm